Decoded Metar for KVPC (CARTERSVILLE in GA, USA) (IATA:VPC) | Meteo·Mobile Aviation Weather
aviador You're here:

KVPC Decoded Metar

CARTERSVILLE in GA, USA
Report Time2019-04-23 14:53:00
UTC Time2019-04-23 15:57:28
Flight Rules vfr VFR
WindCalm
Visibility9999 m
Phenomena:N/A
Clouds:N/A
Expected CloudBase > 3,200 ft AGL from Temp-Dew spread
CeilingNone
Temp20°C (ISA +6)
Dew Point12°C (60% RH)
QNH1022 hPa
Density Alt1,371 ft
Elevation728 ft
Report Wrong Elevation
Raw Report
METAR KVPC 231453Z AUTO 00000KT 10SM CLR 20/12 A3017 RMK AO2 SLP207
T02000122 53005=

Extra information for KVPC:More info

Metar Taf Metar & Taf Last 4 Metars F.Rules Stats Wind Profile Meteogram Temp Stats Airport Information Weather charts Add Link Nearby VenuesMetar ALERT Operation Metar Decoded Social comments

AIRNAV info for KVPC